createdAt,value
2022-10-11T00:00:35.119Z,10.10
2022-10-11T00:01:36.877Z,9.37
2022-10-11T00:02:39.745Z,10.33
2022-10-11T00:03:41.615Z,17.67
2022-10-11T00:04:43.376Z,9.40
2022-10-11T00:05:45.389Z,9.47
2022-10-11T00:06:48.661Z,13.00
2022-10-11T00:07:50.426Z,11.93
2022-10-11T00:08:52.231Z,7.87
2022-10-11T00:09:54.930Z,8.50
2022-10-11T00:11:03.641Z,9.80
2022-10-11T00:12:05.406Z,11.83
2022-10-11T00:13:08.113Z,8.07
2022-10-11T00:14:10.608Z,6.40
2022-10-11T00:15:15.734Z,20.03
2022-10-11T00:16:18.817Z,25.70
2022-10-11T00:17:20.363Z,8.93
2022-10-11T00:18:22.454Z,8.90
2022-10-11T00:19:24.302Z,11.97
2022-10-11T00:20:26.644Z,6.00
2022-10-11T00:21:28.288Z,5.80
2022-10-11T00:22:30.247Z,9.07
2022-10-11T00:23:32.062Z,8.93
2022-10-11T00:24:33.631Z,6.30
2022-10-11T00:25:35.802Z,18.17
2022-10-11T00:26:37.690Z,9.40
2022-10-11T00:27:39.571Z,16.10
2022-10-11T00:28:42.103Z,21.73
2022-10-11T00:29:43.931Z,16.80
2022-10-11T00:30:45.577Z,10.70
2022-10-11T00:31:47.447Z,10.10
2022-10-11T00:32:50.456Z,7.80
2022-10-11T00:33:54.756Z,15.17
2022-10-11T00:34:59.011Z,11.77
2022-10-11T00:36:00.973Z,5.87
2022-10-11T00:37:03.449Z,10.67
2022-10-11T00:38:04.972Z,13.20
2022-10-11T00:39:06.803Z,15.37
2022-10-11T00:40:13.675Z,15.23
2022-10-11T00:41:16.287Z,9.70
2022-10-11T00:42:19.749Z,8.20
2022-10-11T00:43:24.595Z,17.17
2022-10-11T00:44:29.135Z,11.83
2022-10-11T00:45:30.653Z,6.60
2022-10-11T00:46:32.466Z,7.30
2022-10-11T00:47:34.124Z,6.43
2022-10-11T00:48:49.201Z,7.30
2022-10-11T00:50:01.013Z,7.03
2022-10-11T00:51:08.199Z,19.07
2022-10-11T00:52:29.444Z,10.67
2022-10-11T00:53:35.159Z,6.70
2022-10-11T00:54:41.905Z,7.37
2022-10-11T00:55:54.052Z,10.40
2022-10-11T00:57:03.800Z,8.00
2022-10-11T00:58:06.600Z,5.90
2022-10-11T00:59:16.643Z,15.00
2022-10-11T01:00:19.522Z,6.03
2022-10-11T01:01:21.444Z,7.17
2022-10-11T01:02:25.262Z,12.50
2022-10-11T01:03:32.007Z,8.40
2022-10-11T01:04:34.574Z,6.93
2022-10-11T01:05:39.149Z,16.47
2022-10-11T01:06:41.853Z,6.53
2022-10-11T01:07:45.448Z,13.37
2022-10-11T01:08:47.695Z,18.07
2022-10-11T01:09:51.085Z,8.07
2022-10-11T01:10:54.039Z,12.27
2022-10-11T01:11:59.292Z,11.63
2022-10-11T01:13:05.095Z,9.13
2022-10-11T01:14:41.759Z,15.30
2022-10-11T01:15:55.164Z,5.97
2022-10-11T01:17:10.406Z,9.77
2022-10-11T01:18:22.284Z,14.33
2022-10-11T01:19:57.626Z,17.00
2022-10-11T01:21:26.539Z,9.20
2022-10-11T01:22:50.314Z,14.03
2022-10-11T01:24:08.766Z,7.67
2022-10-11T01:25:55.379Z,16.73
2022-10-11T01:27:37.279Z,5.80
2022-10-11T01:29:04.805Z,11.40
2022-10-11T01:30:24.506Z,19.73
2022-10-11T01:31:45.010Z,13.30
2022-10-11T01:33:04.906Z,9.87
2022-10-11T01:34:14.372Z,10.30
2022-10-11T01:35:38.603Z,9.47
2022-10-11T01:36:49.057Z,16.87
2022-10-11T01:38:01.647Z,11.73
2022-10-11T01:39:10.116Z,10.33
2022-10-11T01:40:17.923Z,10.70
2022-10-11T01:41:27.318Z,19.37
2022-10-11T01:42:32.022Z,8.50
2022-10-11T01:43:35.460Z,11.57
2022-10-11T01:44:39.471Z,6.70
2022-10-11T01:45:43.374Z,9.53
2022-10-11T01:46:45.132Z,9.57
2022-10-11T01:47:47.536Z,13.47
2022-10-11T01:48:53.387Z,8.63
2022-10-11T01:49:57.490Z,10.30
2022-10-11T01:51:02.370Z,9.53
2022-10-11T01:52:06.869Z,15.80
2022-10-11T01:53:34.287Z,15.43
2022-10-11T01:55:15.610Z,15.63
2022-10-11T01:56:19.868Z,18.53
2022-10-11T01:57:46.284Z,19.80
2022-10-11T01:58:57.701Z,9.70
2022-10-11T02:00:14.218Z,12.27
2022-10-11T02:01:46.140Z,12.60
2022-10-11T02:03:06.522Z,8.20
2022-10-11T02:04:20.578Z,15.87
2022-10-11T02:05:55.806Z,23.90
2022-10-11T02:07:03.328Z,9.20
2022-10-11T02:08:17.551Z,14.00
2022-10-11T02:09:24.671Z,20.53
2022-10-11T02:10:32.294Z,13.37
2022-10-11T02:11:38.234Z,14.87
2022-10-11T02:12:55.049Z,28.00
2022-10-11T02:14:09.616Z,15.10
2022-10-11T02:15:14.639Z,19.87
2022-10-11T02:16:20.755Z,14.67
2022-10-11T02:17:28.347Z,23.57
2022-10-11T02:18:37.387Z,27.57
2022-10-11T02:19:43.097Z,22.33
2022-10-11T02:20:46.061Z,17.63
2022-10-11T02:21:53.647Z,20.77
2022-10-11T02:23:06.352Z,15.43
2022-10-11T02:24:16.842Z,31.57
2022-10-11T02:25:25.295Z,16.70
2022-10-11T02:26:31.135Z,17.93
2022-10-11T02:27:35.787Z,12.73
2022-10-11T02:28:41.867Z,21.53
2022-10-11T02:29:46.554Z,9.77
2022-10-11T02:30:51.818Z,23.90
2022-10-11T02:31:57.215Z,13.83
2022-10-11T02:33:02.989Z,13.20
2022-10-11T02:34:27.693Z,27.63
2022-10-11T02:35:34.700Z,13.73
2022-10-11T02:37:24.732Z,34.47
2022-10-11T02:38:35.272Z,16.50
2022-10-11T02:39:42.780Z,24.40
2022-10-11T02:40:48.592Z,15.87
2022-10-11T02:41:52.871Z,14.47
2022-10-11T02:43:11.031Z,12.13
2022-10-11T02:44:33.704Z,16.10
2022-10-11T02:45:39.372Z,26.33
2022-10-11T02:46:43.957Z,16.93
2022-10-11T02:47:47.542Z,27.13
2022-10-11T02:48:50.041Z,30.13
2022-10-11T02:49:51.549Z,25.80
2022-10-11T02:50:54.328Z,22.83
2022-10-11T02:51:57.352Z,23.03
2022-10-11T02:53:00.842Z,31.37
2022-10-11T02:54:02.612Z,16.90
2022-10-11T02:55:04.900Z,21.97
2022-10-11T02:56:07.621Z,27.63
2022-10-11T02:57:09.522Z,22.40
2022-10-11T02:58:11.518Z,24.13
2022-10-11T02:59:13.252Z,30.03
2022-10-11T03:00:16.028Z,19.30
2022-10-11T03:01:18.132Z,23.43
2022-10-11T03:02:20.530Z,20.73
2022-10-11T03:03:22.629Z,19.47
2022-10-11T03:04:24.857Z,19.87
2022-10-11T03:05:26.644Z,16.53
2022-10-11T03:06:28.318Z,30.97
2022-10-11T03:07:29.813Z,26.17
2022-10-11T03:08:31.756Z,20.97
2022-10-11T03:09:33.437Z,19.97
2022-10-11T03:10:35.573Z,41.17
2022-10-11T03:11:38.450Z,19.10
2022-10-11T03:12:40.101Z,19.00
2022-10-11T03:13:43.039Z,25.43
2022-10-11T03:14:44.596Z,25.83
2022-10-11T03:16:02.345Z,25.53
2022-10-11T03:17:31.057Z,27.30
2022-10-11T03:18:27.716Z,17.50
2022-10-11T03:19:29.764Z,17.43
2022-10-11T03:20:31.625Z,28.10
2022-10-11T03:21:34.714Z,24.60
2022-10-11T03:22:36.814Z,20.53
2022-10-11T03:23:38.675Z,20.53
2022-10-11T03:24:40.555Z,25.77
2022-10-11T03:25:46.258Z,27.93
2022-10-11T03:26:48.418Z,28.13
2022-10-11T03:27:50.129Z,21.07
2022-10-11T03:28:51.981Z,28.03
2022-10-11T03:29:53.798Z,23.83
2022-10-11T03:30:56.274Z,26.63
2022-10-11T03:31:59.170Z,21.00
2022-10-11T03:33:00.800Z,31.60
2022-10-11T03:34:02.904Z,23.67
2022-10-11T03:35:05.213Z,22.50
2022-10-11T03:36:09.982Z,22.50
2022-10-11T03:37:11.650Z,21.63
2022-10-11T03:38:15.218Z,28.73
2022-10-11T03:39:17.001Z,18.37
2022-10-11T03:40:24.023Z,21.90
2022-10-11T03:41:26.669Z,23.53
2022-10-11T03:42:36.761Z,27.87
2022-10-11T03:43:40.609Z,23.50
2022-10-11T03:44:52.009Z,25.20
2022-10-11T03:45:54.040Z,24.50
2022-10-11T03:46:58.536Z,22.43
2022-10-11T03:48:00.427Z,27.60
2022-10-11T03:49:05.044Z,16.73
2022-10-11T03:50:09.050Z,33.77
2022-10-11T03:51:14.515Z,23.10
2022-10-11T03:52:16.072Z,22.87
2022-10-11T03:53:18.659Z,26.73
2022-10-11T03:54:21.370Z,17.83
2022-10-11T03:55:22.917Z,17.27
2022-10-11T03:56:24.956Z,18.50
2022-10-11T03:57:26.640Z,15.03
2022-10-11T03:58:28.289Z,23.17
2022-10-11T03:59:30.441Z,19.33
2022-10-11T04:00:33.164Z,25.13
2022-10-11T04:01:38.629Z,19.83
2022-10-11T04:02:41.444Z,24.83
2022-10-11T04:03:43.186Z,18.80
2022-10-11T04:04:45.937Z,20.33
2022-10-11T04:05:47.696Z,14.57
2022-10-11T04:06:49.234Z,22.23
2022-10-11T04:07:51.299Z,29.10
2022-10-11T04:08:54.377Z,22.93
2022-10-11T04:09:56.118Z,17.83
2022-10-11T04:10:58.073Z,25.60
2022-10-11T04:12:00.894Z,17.30
2022-10-11T04:13:02.975Z,28.80
2022-10-11T04:14:05.409Z,19.40
2022-10-11T04:15:08.880Z,17.17
2022-10-11T04:16:10.722Z,21.60
2022-10-11T04:17:13.030Z,21.40
2022-10-11T04:18:18.040Z,17.63
2022-10-11T04:19:20.468Z,22.90
2022-10-11T04:20:22.436Z,22.80
2022-10-11T04:21:23.988Z,18.87
2022-10-11T04:22:25.613Z,21.60
2022-10-11T04:23:27.260Z,25.60
2022-10-11T04:24:29.713Z,24.80
2022-10-11T04:25:32.540Z,21.73
2022-10-11T04:26:34.379Z,19.13
2022-10-11T04:27:36.021Z,20.40
2022-10-11T04:28:40.145Z,17.00
2022-10-11T04:29:41.772Z,20.83
2022-10-11T04:30:43.785Z,27.43
2022-10-11T04:31:47.316Z,21.63
2022-10-11T04:32:49.409Z,27.47
2022-10-11T04:33:53.224Z,21.03
2022-10-11T04:34:56.189Z,19.20
2022-10-11T04:35:57.853Z,20.53
2022-10-11T04:37:01.118Z,24.00
2022-10-11T04:38:02.876Z,18.90
2022-10-11T04:39:06.249Z,25.50
2022-10-11T04:40:09.203Z,19.57
2022-10-11T04:41:14.173Z,27.90
2022-10-11T04:42:16.485Z,17.40
2022-10-11T04:43:19.401Z,29.00
2022-10-11T04:44:21.038Z,31.50
2022-10-11T04:45:22.810Z,23.63
2022-10-11T04:46:28.055Z,36.90
2022-10-11T04:47:33.038Z,33.80
2022-10-11T04:48:34.777Z,22.97
2022-10-11T04:49:36.366Z,36.37
2022-10-11T04:50:38.037Z,27.87
2022-10-11T04:51:39.618Z,30.70
2022-10-11T04:52:42.105Z,24.07
2022-10-11T04:53:43.912Z,32.33
2022-10-11T04:54:45.883Z,26.80
2022-10-11T04:55:58.605Z,27.80
2022-10-11T04:57:01.318Z,22.50
2022-10-11T04:58:03.445Z,27.00
2022-10-11T04:59:05.351Z,33.83
2022-10-11T05:00:07.563Z,37.73
2022-10-11T05:01:10.665Z,23.43
2022-10-11T05:02:12.320Z,30.57
2022-10-11T05:03:14.805Z,37.33
2022-10-11T05:04:18.218Z,20.27
2022-10-11T05:05:19.818Z,24.43
2022-10-11T05:06:22.325Z,26.20
2022-10-11T05:07:24.162Z,25.43
2022-10-11T05:08:27.470Z,23.87
2022-10-11T05:09:29.062Z,25.20
2022-10-11T05:10:32.158Z,31.93
2022-10-11T05:11:35.261Z,33.20
2022-10-11T05:12:36.769Z,28.37
2022-10-11T05:13:39.221Z,26.23
2022-10-11T05:14:40.897Z,23.67
2022-10-11T05:15:43.805Z,32.53
2022-10-11T05:16:45.546Z,29.83
2022-10-11T05:17:49.891Z,30.77
2022-10-11T05:18:51.672Z,26.10
2022-10-11T05:19:53.335Z,26.67
2022-10-11T05:21:07.253Z,28.33
2022-10-11T05:22:09.214Z,28.53
2022-10-11T05:23:11.240Z,33.20
2022-10-11T05:24:13.676Z,33.13
2022-10-11T05:25:16.401Z,30.00
2022-10-11T05:26:19.698Z,28.60
2022-10-11T05:27:21.298Z,26.27
2022-10-11T05:28:23.356Z,33.33
2022-10-11T05:29:25.129Z,27.53
2022-10-11T05:30:26.888Z,28.07
2022-10-11T05:31:28.709Z,25.20
2022-10-11T05:32:30.261Z,44.20
2022-10-11T05:33:33.781Z,27.77
2022-10-11T05:34:37.067Z,23.03
2022-10-11T05:35:38.727Z,37.47
2022-10-11T05:36:40.283Z,34.00
2022-10-11T05:37:41.807Z,33.17
2022-10-11T05:38:44.145Z,36.47
2022-10-11T05:39:47.084Z,43.77
2022-10-11T05:40:49.982Z,31.60
2022-10-11T05:41:53.059Z,31.77
2022-10-11T05:42:55.919Z,34.10
2022-10-11T05:43:58.031Z,27.40
2022-10-11T05:45:01.302Z,29.37
2022-10-11T05:46:03.766Z,28.47
2022-10-11T05:47:05.902Z,27.77
2022-10-11T05:48:08.655Z,36.50
2022-10-11T05:49:13.181Z,33.30
2022-10-11T05:50:19.728Z,35.03
2022-10-11T05:51:25.068Z,37.73
2022-10-11T05:52:27.013Z,40.73
2022-10-11T05:53:29.218Z,35.03
2022-10-11T05:54:31.135Z,38.20
2022-10-11T05:55:37.452Z,38.10
2022-10-11T05:56:39.874Z,44.47
2022-10-11T05:57:41.549Z,41.70
2022-10-11T05:58:43.215Z,35.00
2022-10-11T05:59:45.339Z,43.03
2022-10-11T06:00:47.187Z,39.03
2022-10-11T06:01:49.138Z,35.60
2022-10-11T06:02:50.848Z,31.70
2022-10-11T06:03:54.507Z,41.53
2022-10-11T06:04:56.614Z,35.70
2022-10-11T06:06:02.521Z,36.30
2022-10-11T06:07:04.990Z,47.60
2022-10-11T06:08:08.671Z,28.50
2022-10-11T06:09:10.369Z,35.40
2022-10-11T06:10:12.931Z,45.20
2022-10-11T06:11:25.563Z,40.00
2022-10-11T06:12:29.745Z,36.70
2022-10-11T06:13:31.346Z,29.60
2022-10-11T06:14:33.228Z,38.23
2022-10-11T06:15:38.290Z,33.83
2022-10-11T06:16:40.187Z,34.53
2022-10-11T06:17:42.876Z,39.40
2022-10-11T06:18:46.491Z,38.23
2022-10-11T06:19:49.392Z,51.63
2022-10-11T06:20:51.582Z,43.03
2022-10-11T06:21:53.531Z,38.70
2022-10-11T06:22:55.379Z,46.10
2022-10-11T06:24:01.384Z,44.20
2022-10-11T06:25:03.694Z,47.43
2022-10-11T06:26:09.901Z,40.83
2022-10-11T06:27:13.518Z,58.77
2022-10-11T06:28:15.576Z,39.70
2022-10-11T06:29:17.555Z,44.40
2022-10-11T06:30:19.756Z,44.40
2022-10-11T06:31:21.769Z,62.03
2022-10-11T06:32:25.302Z,41.97
2022-10-11T06:33:27.179Z,48.57
2022-10-11T06:34:30.065Z,42.07
2022-10-11T06:35:31.691Z,41.13
2022-10-11T06:36:33.379Z,46.47
2022-10-11T06:37:35.618Z,47.37
2022-10-11T06:38:42.344Z,44.73
2022-10-11T06:39:47.928Z,49.07
2022-10-11T06:40:50.106Z,43.73
2022-10-11T06:41:53.094Z,51.83
2022-10-11T06:42:57.200Z,50.60
2022-10-11T06:44:00.540Z,41.33
2022-10-11T06:45:03.038Z,48.40
2022-10-11T06:46:05.177Z,45.97
2022-10-11T06:47:07.154Z,47.00
2022-10-11T06:48:09.025Z,50.20
2022-10-11T06:49:10.844Z,44.23
2022-10-11T06:50:13.354Z,40.40
2022-10-11T06:51:17.584Z,61.53
2022-10-11T06:52:20.888Z,45.90
2022-10-11T06:53:25.463Z,41.83
2022-10-11T06:54:27.605Z,50.13
2022-10-11T06:55:29.252Z,44.30
2022-10-11T06:56:31.869Z,50.20
2022-10-11T06:57:33.835Z,64.30
2022-10-11T06:58:35.893Z,44.60
2022-10-11T06:59:37.814Z,52.90
2022-10-11T07:00:40.040Z,36.70
2022-10-11T07:01:42.671Z,45.93
2022-10-11T07:02:45.227Z,52.47
2022-10-11T07:03:48.094Z,43.57
2022-10-11T07:04:49.939Z,41.10
2022-10-11T07:05:51.669Z,41.60
2022-10-11T07:06:53.320Z,50.60
2022-10-11T07:07:55.617Z,52.67
2022-10-11T07:08:59.909Z,48.73
2022-10-11T07:10:02.573Z,48.33
2022-10-11T07:11:10.022Z,41.03
2022-10-11T07:12:13.589Z,40.73
2022-10-11T07:13:17.357Z,40.20
2022-10-11T07:14:20.568Z,38.67
2022-10-11T07:15:25.099Z,40.87
2022-10-11T07:16:28.087Z,40.73
2022-10-11T07:17:31.892Z,43.23
2022-10-11T07:18:34.203Z,43.53
2022-10-11T07:19:37.661Z,37.47
2022-10-11T07:20:40.319Z,42.30
2022-10-11T07:21:42.207Z,42.70
2022-10-11T07:22:43.794Z,43.50
2022-10-11T07:23:46.255Z,45.30
2022-10-11T07:24:49.217Z,40.93
2022-10-11T07:25:54.656Z,38.57
2022-10-11T07:26:56.510Z,38.10
2022-10-11T07:27:58.209Z,34.30
2022-10-11T07:29:00.284Z,38.50
2022-10-11T07:30:02.212Z,44.53
2022-10-11T07:31:15.453Z,41.17
2022-10-11T07:32:18.349Z,36.47
2022-10-11T07:33:20.501Z,41.37
2022-10-11T07:34:25.323Z,36.07
2022-10-11T07:35:26.857Z,48.73
2022-10-11T07:36:28.915Z,47.43
2022-10-11T07:37:30.589Z,46.60
2022-10-11T07:38:33.771Z,38.77
2022-10-11T07:39:35.875Z,40.47
2022-10-11T07:40:45.452Z,35.93
2022-10-11T07:41:49.571Z,40.07
2022-10-11T07:42:51.431Z,33.33
2022-10-11T07:43:54.892Z,40.33
2022-10-11T07:44:59.950Z,45.33
2022-10-11T07:46:05.030Z,31.33
2022-10-11T07:47:11.035Z,47.07
2022-10-11T07:48:16.384Z,31.07
2022-10-11T07:49:19.862Z,40.77
2022-10-11T07:50:21.711Z,40.63
2022-10-11T07:51:26.705Z,49.93
2022-10-11T07:52:28.507Z,46.77
2022-10-11T07:53:30.308Z,31.90
2022-10-11T07:54:33.117Z,33.00
2022-10-11T07:55:49.212Z,36.83
2022-10-11T07:56:50.917Z,24.73
2022-10-11T07:57:52.515Z,41.67
2022-10-11T07:58:57.179Z,30.60
2022-10-11T07:59:58.944Z,33.87
2022-10-11T08:01:00.944Z,32.60
2022-10-11T08:02:02.924Z,32.20
2022-10-11T08:03:07.192Z,28.83
2022-10-11T08:04:09.129Z,24.27
2022-10-11T08:05:10.734Z,28.77
2022-10-11T08:06:15.513Z,29.13
2022-10-11T08:07:17.840Z,19.73
2022-10-11T08:08:20.769Z,22.10
2022-10-11T08:09:24.256Z,37.70
2022-10-11T08:10:27.180Z,26.63
2022-10-11T08:11:33.701Z,19.60
2022-10-11T08:12:36.376Z,23.30
2022-10-11T08:13:40.934Z,21.73
2022-10-11T08:14:43.554Z,23.30
2022-10-11T08:15:46.458Z,27.80
2022-10-11T08:16:48.378Z,25.00
2022-10-11T08:17:50.387Z,18.83
2022-10-11T08:18:55.883Z,22.40
2022-10-11T08:20:00.782Z,20.17
2022-10-11T08:21:07.941Z,27.57
2022-10-11T08:22:09.803Z,15.27
2022-10-11T08:23:15.073Z,13.00
2022-10-11T08:24:20.685Z,20.97
2022-10-11T08:25:23.207Z,19.83
2022-10-11T08:26:25.214Z,26.67
2022-10-11T08:27:27.725Z,31.30
2022-10-11T08:28:29.418Z,26.73
2022-10-11T08:29:32.951Z,29.17
2022-10-11T08:30:34.846Z,28.20
2022-10-11T08:31:37.837Z,27.83
2022-10-11T08:32:40.924Z,42.33
2022-10-11T08:33:42.864Z,42.63
2022-10-11T08:34:44.942Z,28.10
2022-10-11T08:35:49.057Z,29.33
2022-10-11T08:36:52.154Z,24.63
2022-10-11T08:37:55.995Z,25.93
2022-10-11T08:38:59.496Z,27.30
2022-10-11T08:40:03.611Z,39.17
2022-10-11T08:41:26.704Z,23.97
2022-10-11T08:42:38.426Z,18.93
2022-10-11T08:43:52.652Z,27.23
2022-10-11T08:45:16.199Z,26.00
2022-10-11T08:46:23.609Z,27.37
2022-10-11T08:47:36.691Z,20.87
2022-10-11T08:48:42.472Z,22.10
2022-10-11T08:49:44.686Z,25.33
2022-10-11T08:50:52.676Z,25.17
2022-10-11T08:52:04.585Z,26.40
2022-10-11T08:53:18.850Z,30.77
2022-10-11T08:54:37.053Z,59.70
2022-10-11T08:55:48.836Z,25.13
2022-10-11T08:56:51.065Z,24.60
2022-10-11T08:57:55.445Z,34.00
2022-10-11T08:58:57.793Z,27.00
2022-10-11T09:00:05.580Z,25.40
2022-10-11T09:01:17.438Z,25.80
2022-10-11T09:03:06.468Z,32.07
2022-10-11T09:04:03.689Z,31.70
2022-10-11T09:05:10.932Z,29.27
2022-10-11T09:06:21.681Z,28.80
2022-10-11T09:07:49.120Z,31.57
2022-10-11T09:08:58.337Z,23.20
2022-10-11T09:10:30.625Z,30.43
2022-10-11T09:11:47.776Z,21.23
2022-10-11T09:13:17.576Z,32.23
2022-10-11T09:14:36.975Z,25.10
2022-10-11T09:16:32.374Z,28.53
2022-10-11T09:17:43.564Z,27.00
2022-10-11T09:19:11.723Z,23.70
2022-10-11T09:20:13.453Z,25.07
2022-10-11T09:21:20.673Z,30.43
2022-10-11T09:22:50.153Z,25.20
2022-10-11T09:24:22.901Z,35.93
2022-10-11T09:25:47.051Z,24.43
2022-10-11T09:27:03.283Z,25.83
2022-10-11T09:28:30.716Z,20.17
2022-10-11T09:29:57.163Z,19.83
2022-10-11T09:30:59.542Z,18.80
2022-10-11T09:32:01.147Z,16.70
2022-10-11T09:33:04.830Z,17.60
2022-10-11T09:34:12.171Z,13.57
2022-10-11T09:35:21.227Z,25.93
2022-10-11T09:36:51.609Z,14.13
2022-10-11T09:38:02.442Z,16.13
2022-10-11T09:39:25.028Z,14.63
2022-10-11T09:40:37.686Z,13.80
2022-10-11T09:41:56.894Z,10.53
2022-10-11T09:42:59.765Z,13.63
2022-10-11T09:44:01.419Z,16.57
2022-10-11T09:45:14.503Z,18.60
2022-10-11T09:46:40.104Z,15.97
2022-10-11T09:47:42.914Z,19.30
2022-10-11T09:48:44.840Z,13.77
2022-10-11T09:49:52.216Z,12.73
2022-10-11T09:51:01.953Z,12.17
2022-10-11T09:52:06.404Z,14.00
2022-10-11T09:53:08.514Z,17.20
2022-10-11T09:54:10.897Z,44.43
2022-10-11T09:55:30.745Z,17.27
2022-10-11T09:56:35.363Z,11.13
2022-10-11T09:57:39.939Z,20.67
2022-10-11T09:58:41.630Z,16.40
2022-10-11T09:59:44.579Z,15.80
2022-10-11T10:01:08.023Z,18.73
2022-10-11T10:02:12.634Z,18.67
2022-10-11T10:03:28.392Z,16.57
2022-10-11T10:04:30.100Z,19.00
2022-10-11T10:05:35.854Z,20.73
2022-10-11T10:06:38.123Z,12.53
2022-10-11T10:07:56.410Z,25.60
2022-10-11T10:09:28.151Z,17.43
2022-10-11T10:10:55.757Z,12.43
2022-10-11T10:12:12.403Z,19.20
2022-10-11T10:13:20.186Z,18.83
2022-10-11T10:14:26.829Z,15.63
2022-10-11T10:15:38.165Z,16.37
2022-10-11T10:16:39.863Z,8.73
2022-10-11T10:17:49.671Z,19.47
2022-10-11T10:19:06.398Z,22.30
2022-10-11T10:20:21.442Z,12.10
2022-10-11T10:21:32.903Z,27.10
2022-10-11T10:22:36.104Z,12.83
2022-10-11T10:23:38.394Z,20.03
2022-10-11T10:24:42.454Z,12.30
2022-10-11T10:25:51.381Z,14.70
2022-10-11T10:27:07.048Z,14.20
2022-10-11T10:28:35.779Z,10.17
2022-10-11T10:29:38.051Z,16.40
2022-10-11T10:30:51.627Z,13.33
2022-10-11T10:32:13.791Z,15.60
2022-10-11T10:33:19.717Z,10.10
2022-10-11T10:34:27.405Z,16.20
2022-10-11T10:35:31.953Z,12.23
2022-10-11T10:36:39.256Z,14.73
2022-10-11T10:37:51.204Z,12.50
2022-10-11T10:38:58.526Z,12.37
2022-10-11T10:40:09.198Z,17.00
2022-10-11T10:41:13.911Z,13.17
2022-10-11T10:42:19.481Z,12.93
2022-10-11T10:43:33.489Z,15.53
2022-10-11T10:44:35.106Z,13.47
2022-10-11T10:46:01.346Z,12.53
2022-10-11T10:47:15.664Z,16.37
2022-10-11T10:49:01.727Z,10.43
2022-10-11T10:50:43.625Z,13.83
2022-10-11T10:52:05.283Z,13.67
2022-10-11T10:53:30.280Z,19.90
2022-10-11T10:54:52.719Z,16.23
2022-10-11T10:56:01.287Z,14.37
2022-10-11T10:57:20.519Z,11.50
2022-10-11T10:58:31.113Z,14.50
2022-10-11T10:59:48.194Z,9.60
2022-10-11T11:00:55.878Z,9.87
2022-10-11T11:02:41.480Z,11.23
2022-10-11T11:03:56.292Z,16.70
2022-10-11T11:05:21.375Z,7.80
2022-10-11T11:06:37.472Z,14.00
2022-10-11T11:08:13.475Z,12.50
2022-10-11T11:09:46.266Z,10.30
2022-10-11T11:11:12.551Z,7.50
2022-10-11T11:12:27.444Z,19.63
2022-10-11T11:13:36.715Z,50.27
2022-10-11T11:14:44.242Z,15.00
2022-10-11T11:16:13.051Z,8.23
2022-10-11T11:17:39.485Z,9.90
2022-10-11T11:18:59.470Z,8.80
2022-10-11T11:20:20.915Z,11.97
2022-10-11T11:21:40.533Z,21.03
2022-10-11T11:22:55.990Z,18.20
2022-10-11T11:24:15.688Z,9.97
2022-10-11T11:25:43.883Z,6.27
2022-10-11T11:27:08.439Z,15.87
2022-10-11T11:28:43.937Z,14.30
2022-10-11T11:30:14.950Z,7.90
2022-10-11T11:31:49.602Z,9.17
2022-10-11T11:33:28.919Z,11.60
2022-10-11T11:34:40.101Z,7.70
2022-10-11T11:35:46.397Z,10.83
2022-10-11T11:36:52.979Z,10.63
2022-10-11T11:38:06.082Z,10.13
2022-10-11T11:39:16.883Z,8.90
2022-10-11T11:40:35.449Z,22.47
2022-10-11T11:41:48.015Z,8.00
2022-10-11T11:42:57.158Z,15.80
2022-10-11T11:44:16.408Z,11.20
2022-10-11T11:45:44.717Z,10.53
2022-10-11T11:46:55.350Z,7.53
2022-10-11T11:48:04.382Z,6.30
2022-10-11T11:49:20.598Z,11.30
2022-10-11T11:50:27.947Z,11.40
2022-10-11T11:51:37.347Z,9.83
2022-10-11T11:52:48.922Z,6.43
2022-10-11T11:54:18.893Z,8.93
2022-10-11T11:55:23.432Z,6.57
2022-10-11T11:57:12.470Z,9.30
2022-10-11T11:58:35.624Z,6.77
2022-10-11T11:59:52.694Z,10.20
2022-10-11T12:01:26.451Z,10.50
2022-10-11T12:02:43.553Z,11.03
2022-10-11T12:03:50.701Z,13.90
2022-10-11T12:04:54.597Z,6.60
2022-10-11T12:06:17.555Z,10.27
2022-10-11T12:07:22.529Z,9.23
2022-10-11T12:08:31.835Z,24.17
2022-10-11T12:09:37.298Z,10.43
2022-10-11T12:10:51.580Z,9.50
2022-10-11T12:11:57.828Z,7.57
2022-10-11T12:13:15.256Z,12.03
2022-10-11T12:14:38.820Z,13.30
2022-10-11T12:15:56.517Z,14.67
2022-10-11T12:17:23.955Z,20.10
2022-10-11T12:18:26.598Z,12.17
2022-10-11T12:19:28.310Z,18.57
2022-10-11T12:20:38.644Z,14.10
2022-10-11T12:21:44.121Z,11.97
2022-10-11T12:23:00.757Z,13.23
2022-10-11T12:24:20.263Z,15.27
2022-10-11T12:25:22.261Z,16.33
2022-10-11T12:26:29.850Z,14.07
2022-10-11T12:27:44.127Z,11.80
2022-10-11T12:29:01.201Z,13.33
2022-10-11T12:30:04.029Z,26.13
2022-10-11T12:31:36.039Z,14.37
2022-10-11T12:32:39.801Z,14.80
2022-10-11T12:33:41.365Z,15.17
2022-10-11T12:34:44.334Z,16.73
2022-10-11T12:35:55.570Z,15.93
2022-10-11T12:36:57.204Z,21.93
2022-10-11T12:38:17.018Z,18.80
2022-10-11T12:39:18.884Z,19.30
2022-10-11T12:40:42.402Z,11.83
2022-10-11T12:41:47.321Z,13.90
2022-10-11T12:43:14.121Z,17.70
2022-10-11T12:44:18.743Z,18.43
2022-10-11T12:45:23.835Z,13.00
2022-10-11T12:46:31.396Z,17.17
2022-10-11T12:47:43.527Z,14.33
2022-10-11T12:49:22.821Z,16.80
2022-10-11T12:50:37.729Z,18.70
2022-10-11T12:51:50.304Z,13.70
2022-10-11T12:53:09.000Z,17.93
2022-10-11T12:54:37.935Z,17.37
2022-10-11T12:56:12.413Z,15.63
2022-10-11T12:57:46.585Z,16.27
2022-10-11T12:58:49.377Z,16.90
2022-10-11T12:59:51.428Z,16.30
2022-10-11T13:00:57.187Z,17.73
2022-10-11T13:02:00.112Z,11.97
2022-10-11T13:03:06.380Z,23.57
2022-10-11T13:04:11.396Z,25.20
2022-10-11T13:05:45.255Z,13.43
2022-10-11T13:06:54.209Z,12.00
2022-10-11T13:07:59.249Z,14.07
2022-10-11T13:09:07.331Z,11.37
2022-10-11T13:10:15.425Z,11.33
2022-10-11T13:11:21.846Z,14.87
2022-10-11T13:12:24.250Z,18.87
2022-10-11T13:13:32.496Z,16.37
2022-10-11T13:15:04.005Z,21.17
2022-10-11T13:16:15.430Z,24.10
2022-10-11T13:17:48.649Z,26.30
2022-10-11T13:18:56.533Z,18.07
2022-10-11T13:20:25.381Z,28.20
2022-10-11T13:21:27.089Z,16.10
2022-10-11T13:22:28.884Z,13.87
2022-10-11T13:23:38.169Z,10.93
2022-10-11T13:24:40.618Z,17.30
2022-10-11T13:25:42.543Z,25.10
2022-10-11T13:26:49.198Z,21.07
2022-10-11T13:27:54.196Z,14.77
2022-10-11T13:28:56.722Z,14.10
2022-10-11T13:30:05.921Z,16.60
2022-10-11T13:31:09.581Z,18.50
2022-10-11T13:32:17.121Z,23.60
2022-10-11T13:33:26.706Z,13.03
2022-10-11T13:34:31.774Z,18.77
2022-10-11T13:35:38.422Z,16.07
2022-10-11T13:36:42.801Z,14.57
2022-10-11T13:37:47.015Z,14.17
2022-10-11T13:38:58.390Z,10.77
2022-10-11T13:40:00.559Z,19.17
2022-10-11T13:41:08.953Z,15.13
2022-10-11T13:42:15.794Z,19.63
2022-10-11T13:43:26.079Z,20.97
2022-10-11T13:44:28.937Z,18.53
2022-10-11T13:45:35.900Z,13.30
2022-10-11T13:46:37.969Z,25.80
2022-10-11T13:47:39.928Z,15.47
2022-10-11T13:48:41.566Z,21.50
2022-10-11T13:49:53.694Z,19.00
2022-10-11T13:51:06.478Z,29.93
2022-10-11T13:52:23.284Z,21.17
2022-10-11T13:53:25.931Z,18.13
2022-10-11T13:54:53.824Z,15.77
2022-10-11T13:56:08.207Z,16.80
2022-10-11T13:57:13.700Z,15.20
2022-10-11T13:58:34.395Z,15.47
2022-10-11T13:59:36.046Z,17.50
2022-10-11T14:00:39.873Z,21.90
2022-10-11T14:01:45.610Z,14.03
2022-10-11T14:02:56.406Z,18.60
2022-10-11T14:04:04.129Z,15.07
2022-10-11T14:05:06.483Z,17.40
2022-10-11T14:06:09.374Z,32.50
2022-10-11T14:07:50.738Z,14.17
2022-10-11T14:08:56.697Z,30.13
2022-10-11T14:10:00.037Z,20.83
2022-10-11T14:11:06.656Z,15.30
2022-10-11T14:12:33.656Z,18.80
2022-10-11T14:13:38.477Z,14.37
2022-10-11T14:14:42.881Z,14.63
2022-10-11T14:15:45.875Z,18.93
2022-10-11T14:16:58.356Z,17.07
2022-10-11T14:18:01.602Z,31.03
2022-10-11T14:19:10.623Z,15.97
2022-10-11T14:20:15.408Z,19.50
2022-10-11T14:21:19.566Z,22.57
2022-10-11T14:22:22.454Z,20.90
2022-10-11T14:23:24.233Z,11.50
2022-10-11T14:24:25.907Z,8.93
2022-10-11T14:25:27.832Z,17.70
2022-10-11T14:26:38.984Z,16.67
2022-10-11T14:27:42.481Z,11.17
2022-10-11T14:28:44.459Z,19.50
2022-10-11T14:30:06.118Z,16.07
2022-10-11T14:31:08.674Z,17.33
2022-10-11T14:32:24.264Z,17.13
2022-10-11T14:33:26.335Z,16.33
2022-10-11T14:34:29.710Z,13.63
2022-10-11T14:35:32.673Z,12.13
2022-10-11T14:36:34.640Z,22.33
2022-10-11T14:37:36.251Z,15.80
2022-10-11T14:38:37.793Z,27.13